Latest Weather Observations for Thevenard

IDS60801

Issued at 10:05 pm CST Wednesday 30 July 2014 (issued every 30 minutes, with the page automatically refreshed every 10 minutes)

About weather observations | Map of weather stations | Latest weather observations for SA | Other Formats
Station Details ID: 018200 Name: THEVENARD WIND Lat: -32.18 Lon: 133.63 Height: 8.85 m
Data from the previous 72 hours. | See also: Recent months for locations in South Australia
Date/Time
CST
Temp
°C
App
Temp
°C
Dew
Point
Rel
Hum
%
Delta-T
°C
Wind Press
QNH
hPa
Press
MSL
hPa
Rain
since 9 am
mm
Dir
 
Spd
km/h
Gust
km/h
Spd
kts
Gust
kts
30/10:00pm - - - - - N 11 13 6 7 - - -
30/09:30pm - - - - - N 11 13 6 7 - - -
30/09:00pm - - - - - N 11 13 6 7 - - -
30/08:30pm - - - - - NNW 11 13 6 7 - - -
30/08:00pm - - - - - NW 9 11 5 6 - - -
30/07:30pm - - - - - NW 13 13 7 7 - - -
30/07:00pm - - - - - W 11 13 6 7 - - -
30/06:30pm - - - - - W 11 13 6 7 - - -
30/06:00pm - - - - - WSW 13 15 7 8 - - -
30/05:30pm - - - - - WSW 13 15 7 8 - - -
30/05:00pm - - - - - WSW 19 22 10 12 - - -
30/04:30pm - - - - - WSW 17 20 9 11 - - -
30/04:00pm - - - - - W 20 28 11 15 - - -
30/03:30pm - - - - - WNW 22 28 12 15 - - -
30/03:00pm - - - - - WNW 26 32 14 17 - - -
30/02:30pm - - - - - WNW 28 35 15 19 - - -
30/02:00pm - - - - - WNW 30 37 16 20 - - -
30/01:30pm - - - - - WNW 32 37 17 20 - - -
30/01:00pm - - - - - WNW 20 28 11 15 - - -
30/12:30pm - - - - - NW 15 19 8 10 - - -
30/12:00pm - - - - - NNW 15 15 8 8 - - -
30/11:30am - - - - - N 9 13 5 7 - - -
30/11:00am - - - - - N 9 13 5 7 - - -
30/10:30am - - - - - N 6 9 3 5 - - -
30/10:00am - - - - - N 11 15 6 8 - - -
30/09:30am - - - - - N 13 15 7 8 - - -
30/09:00am - - - - - N 15 17 8 9 - - -
30/08:30am - - - - - N 15 19 8 10 - - -
30/08:00am - - - - - N 11 15 6 8 - - -
30/07:30am - - - - - N 11 13 6 7 - - -
30/07:00am - - - - - N 11 15 6 8 - - -
30/06:30am - - - - - N 11 15 6 8 - - -
30/06:00am - - - - - N 13 17 7 9 - - -
30/05:30am - - - - - N 17 20 9 11 - - -
30/05:00am - - - - - N 17 20 9 11 - - -
30/04:30am - - - - - NNW 15 17 8 9 - - -
30/04:00am - - - - - N 13 17 7 9 - - -
30/03:30am - - - - - N 15 17 8 9 - - -
30/03:00am - - - - - N 11 15 6 8 - - -
30/02:30am - - - - - N 13 15 7 8 - - -
30/02:00am - - - - - N 13 15 7 8 - - -
30/01:30am - - - - - N 13 15 7 8 - - -
30/01:00am - - - - - N 7 11 4 6 - - -
30/12:30am - - - - - NNW 9 11 5 6 - - -
30/12:00am - - - - - NW 11 13 6 7 - - -
 
Date/Time
CST
Temp
°C
App
Temp
°C
Dew
Point
Rel
Hum
%
Delta-T
°C
Wind Press
QNH
hPa
Press
MSL
hPa
Rain
since 9 am
mm
Dir
 
Spd
km/h
Gust
km/h
Spd
kts
Gust
kts
29/11:30pm - - - - - NW 13 15 7 8 - - -
29/11:00pm - - - - - NW 13 15 7 8 - - -
29/10:30pm - - - - - NNW 15 17 8 9 - - -
29/10:00pm - - - - - NNW 17 19 9 10 - - -
29/09:30pm - - - - - NNW 15 17 8 9 - - -
29/09:00pm - - - - - NNW 13 17 7 9 - - -
29/08:30pm - - - - - NNW 13 17 7 9 - - -
29/08:00pm - - - - - NW 11 17 6 9 - - -
29/07:30pm - - - - - W 19 20 10 11 - - -
29/07:00pm - - - - - WNW 17 19 9 10 - - -
29/06:30pm - - - - - WNW 20 24 11 13 - - -
29/06:00pm - - - - - W 20 24 11 13 - - -
29/05:30pm - - - - - W 24 30 13 16 - - -
29/05:00pm - - - - - WSW 24 30 13 16 - - -
29/04:30pm - - - - - WSW 19 22 10 12 - - -
29/04:00pm - - - - - WSW 22 26 12 14 - - -
29/03:30pm - - - - - W 24 28 13 15 - - -
29/03:00pm - - - - - W 19 22 10 12 - - -
29/02:30pm - - - - - W 22 30 12 16 - - -
29/02:00pm - - - - - W 22 26 12 14 - - -
29/01:30pm - - - - - WNW 19 24 10 13 - - -
29/01:00pm - - - - - WNW 19 24 10 13 - - -
29/12:30pm - - - - - NW 19 20 10 11 - - -
29/12:00pm - - - - - NNW 17 19 9 10 - - -
29/11:30am - - - - - NNW 15 17 8 9 - - -
29/11:00am - - - - - NNW 17 20 9 11 - - -
29/10:30am - - - - - NNW 19 20 10 11 - - -
29/10:00am - - - - - NNW 19 24 10 13 - - -
29/09:30am - - - - - N 19 22 10 12 - - -
29/09:00am - - - - - NNW 20 24 11 13 - - -
29/08:30am - - - - - NNW 22 26 12 14 - - -
29/08:00am - - - - - NNW 20 24 11 13 - - -
29/07:30am - - - - - NNW 22 26 12 14 - - -
29/07:00am - - - - - NNW 20 26 11 14 - - -
29/06:30am - - - - - NNW 19 24 10 13 - - -
29/06:00am - - - - - NNW 20 24 11 13 - - -
29/05:30am - - - - - NNW 20 24 11 13 - - -
29/05:00am - - - - - NW 20 24 11 13 - - -
29/04:30am - - - - - NNW 20 24 11 13 - - -
29/04:00am - - - - - NNW 19 22 10 12 - - -
29/03:30am - - - - - NW 15 20 8 11 - - -
29/03:00am - - - - - NW 17 24 9 13 - - -
29/02:30am - - - - - NNW 19 20 10 11 - - -
29/02:00am - - - - - NNW 19 24 10 13 - - -
29/01:30am - - - - - NW 19 24 10 13 - - -
29/01:00am - - - - - NNW 19 20 10 11 - - -
29/12:30am - - - - - NNW 17 20 9 11 - - -
29/12:00am - - - - - NNW 17 20 9 11 - - -
 
Date/Time
CST
Temp
°C
App
Temp
°C
Dew
Point
Rel
Hum
%
Delta-T
°C
Wind Press
QNH
hPa
Press
MSL
hPa
Rain
since 9 am
mm
Dir
 
Spd
km/h
Gust
km/h
Spd
kts
Gust
kts
28/11:30pm - - - - - NW 15 19 8 10 - - -
28/11:00pm - - - - - NNW 15 17 8 9 - - -
28/10:30pm - - - - - NNW 15 17 8 9 - - -
28/10:00pm - - - - - NW 13 17 7 9 - - -
28/09:30pm - - - - - NNW 11 13 6 7 - - -
28/09:00pm - - - - - NNW 13 15 7 8 - - -
28/08:30pm - - - - - NNW 13 13 7 7 - - -
28/08:00pm - - - - - NW 13 15 7 8 - - -
28/07:30pm - - - - - NNW 11 13 6 7 - - -
28/07:00pm - - - - - NW 11 13 6 7 - - -
28/06:30pm - - - - - W 9 9 5 5 - - -
28/06:00pm - - - - - WSW 6 6 3 3 - - -
28/05:30pm - - - - - WSW 4 6 2 3 - - -
28/05:00pm - - - - - CALM 0 2 0 1 - - -
28/04:30pm - - - - - S 4 4 2 2 - - -
28/04:00pm - - - - - SSW 4 4 2 2 - - -
28/03:30pm - - - - - SW 2 4 1 2 - - -
28/03:00pm - - - - - SW 2 4 1 2 - - -
28/02:30pm - - - - - SW 7 7 4 4 - - -
28/02:00pm - - - - - SSW 6 7 3 4 - - -
28/01:30pm - - - - - SSE 2 4 1 2 - - -
28/01:00pm - - - - - NNE 2 4 1 2 - - -
28/12:30pm - - - - - N 2 4 1 2 - - -
28/12:00pm - - - - - NNE 4 6 2 3 - - -
28/11:30am - - - - - N 9 9 5 5 - - -
28/11:00am - - - - - N 13 15 7 8 - - -
28/10:30am - - - - - N 9 11 5 6 - - -
28/10:00am - - - - - NW 11 13 6 7 - - -
28/09:30am - - - - - WNW 15 17 8 9 - - -
28/09:00am - - - - - NW 11 11 6 6 - - -
28/08:30am - - - - - NW 9 11 5 6 - - -
28/08:00am - - - - - NW 11 13 6 7 - - -
28/07:30am - - - - - N 11 15 6 8 - - -
28/07:00am - - - - - NNW 11 13 6 7 - - -
28/06:30am - - - - - NNW 7 9 4 5 - - -
28/06:00am - - - - - N 6 7 3 4 - - -
28/05:30am - - - - - N 9 11 5 6 - - -
28/05:00am - - - - - N 9 11 5 6 - - -
28/04:30am - - - - - N 9 11 5 6 - - -
28/04:00am - - - - - N 9 11 5 6 - - -
28/03:30am - - - - - N 11 13 6 7 - - -
28/03:00am - - - - - N 9 11 5 6 - - -
28/02:30am - - - - - N 9 9 5 5 - - -
28/02:00am - - - - - NNW 9 11 5 6 - - -
28/01:30am - - - - - NNW 9 11 5 6 - - -
28/01:00am - - - - - NNW 9 11 5 6 - - -
28/12:30am - - - - - N 11 13 6 7 - - -
28/12:00am - - - - - N 13 13 7 7 - - -
 
Date/Time
CST
Temp
°C
App
Temp
°C
Dew
Point
Rel
Hum
%
Delta-T
°C
Wind Press
QNH
hPa
Press
MSL
hPa
Rain
since 9 am
mm
Dir
 
Spd
km/h
Gust
km/h
Spd
kts
Gust
kts
27/11:30pm - - - - - N 9 11 5 6 - - -
27/11:00pm - - - - - N 9 9 5 5 - - -
27/10:30pm - - - - - N 9 9 5 5 - - -

Other Formats:

Comma delimited format used in spreadsheet applications
http://www.bom.gov.au/fwo/IDS60801/IDS60801.95653.axf

JavaScript Object Notation format (JSON) in row-major order
http://www.bom.gov.au/fwo/IDS60801/IDS60801.95653.json